Houghton County Memorial Airport
KCMX : now visible

Airfield :











YOU CAN JOIN US ON...

 
LOGIN :

Register | Disclaimer

   EN    FR    IT 

 









Legend :    VFR   Marginal VFR   IFR   Intensive IFR   Very Intensive IFR
Visi :
Ceiling :
>= 8 km
>= 3000ft
5 to 8 km
1000 to 3000 ft
1500m to 5 km
500 to 1000 ft
800 to 1500m
200 to 500 ft
< 800m
< 200 ft
Symbols :   Thunderstorms  Fog  Heavy snow  Heavy precipitations  Wind > 20 kt






- Airport Elevation : 1095 ft
- IATA code : CMX


KCMX - Houghton County Memorial

CURRENT METAR :
  • 171253Z AUTO 13007KT 10SM FEW095 M16/M19 A3007 RMK AO2 SLP212 I1000 T11611189 $

EXPIRED METARs :
  • 171153Z AUTO 17004KT 10SM CLR M15/M18 A3009 RMK AO2 SLP217 I1000 I6000 T11501178 11139 21200 55002 $
  • 171053Z AUTO 12003KT 10SM CLR M18/M21 A3009 RMK AO2 SLP217 I1000 T11831206 $
  • 170953Z AUTO 16004KT 10SM CLR M16/M19 A3009 RMK AO2 SLP218 T11611194 $

TAF KCMX
Valid from the 17 at 12:00 until the 18 at 12:00 UTC


171134Z 1712/1812 15005KT P6SM SCT150
FM171800 15010G22KT P6SM OVC030
FM172200 17005KT 3SM -SN OVC020
FM180200 VRB04KT 2SM -SN OVC015
FM180600 32008KT 2SM -SN OVC008
FM180800 33010G18KT 3SM -SHSN OVC012



MET'MAP, your aeronautical weather chart ! - Copyright ORBIFLY December 2007 - Disclaimer

ORBIFLY MET'MAP TEAM :

Programming & Development : Alexandra Zaïnal
Concept & original design : Baudouin d'Aumeries
Assistance for programming : Marc-Olivier Méhu
Technical & hardware support : Manuel Goepfert

Contact : metmap@orbifly.com




SOURCES & CREDITS :

   NOAA       Earth
Advisory